sensor_id;sensor_type;location;lat;lon;timestamp;P1;durP1;ratioP1;P2;durP2;ratioP2
11443;SDS011;5778;47.856;12.154;2023-03-04T00:00:09;54.37;;;36.33;;
11443;SDS011;5778;47.856;12.154;2023-03-04T00:02:38;55.60;;;36.40;;
11443;SDS011;5778;47.856;12.154;2023-03-04T00:05:06;53.93;;;34.43;;
11443;SDS011;5778;47.856;12.154;2023-03-04T00:07:34;53.87;;;35.90;;
11443;SDS011;5778;47.856;12.154;2023-03-04T00:10:03;60.23;;;36.30;;
11443;SDS011;5778;47.856;12.154;2023-03-04T00:12:32;60.63;;;37.87;;
11443;SDS011;5778;47.856;12.154;2023-03-04T00:15:00;58.93;;;37.13;;
11443;SDS011;5778;47.856;12.154;2023-03-04T00:17:27;61.97;;;37.40;;
11443;SDS011;5778;47.856;12.154;2023-03-04T00:19:55;60.73;;;37.87;;
11443;SDS011;5778;47.856;12.154;2023-03-04T00:22:23;59.33;;;36.70;;
11443;SDS011;5778;47.856;12.154;2023-03-04T00:24:50;55.20;;;35.30;;
11443;SDS011;5778;47.856;12.154;2023-03-04T00:27:19;52.53;;;34.00;;
11443;SDS011;5778;47.856;12.154;2023-03-04T00:29:46;48.17;;;30.83;;
11443;SDS011;5778;47.856;12.154;2023-03-04T00:32:14;51.20;;;32.10;;
11443;SDS011;5778;47.856;12.154;2023-03-04T00:34:42;51.53;;;31.30;;
11443;SDS011;5778;47.856;12.154;2023-03-04T00:37:10;46.83;;;30.33;;
11443;SDS011;5778;47.856;12.154;2023-03-04T00:39:38;48.70;;;31.20;;
11443;SDS011;5778;47.856;12.154;2023-03-04T00:42:05;46.33;;;29.80;;
11443;SDS011;5778;47.856;12.154;2023-03-04T00:44:34;47.17;;;31.10;;
11443;SDS011;5778;47.856;12.154;2023-03-04T00:47:02;45.63;;;30.67;;
11443;SDS011;5778;47.856;12.154;2023-03-04T00:49:29;47.97;;;30.23;;
11443;SDS011;5778;47.856;12.154;2023-03-04T00:51:56;44.67;;;28.87;;
11443;SDS011;5778;47.856;12.154;2023-03-04T00:54:24;46.70;;;30.30;;
11443;SDS011;5778;47.856;12.154;2023-03-04T00:56:51;48.73;;;29.97;;
11443;SDS011;5778;47.856;12.154;2023-03-04T00:59:19;46.70;;;29.37;;
11443;SDS011;5778;47.856;12.154;2023-03-04T01:01:48;49.50;;;30.00;;
11443;SDS011;5778;47.856;12.154;2023-03-04T01:04:16;45.50;;;30.13;;
11443;SDS011;5778;47.856;12.154;2023-03-04T01:06:43;43.53;;;28.07;;
11443;SDS011;5778;47.856;12.154;2023-03-04T01:09:11;46.03;;;30.23;;
11443;SDS011;5778;47.856;12.154;2023-03-04T01:11:39;48.50;;;29.37;;
11443;SDS011;5778;47.856;12.154;2023-03-04T01:14:07;44.30;;;29.03;;
11443;SDS011;5778;47.856;12.154;2023-03-04T01:16:34;47.63;;;29.93;;
11443;SDS011;5778;47.856;12.154;2023-03-04T01:19:04;43.73;;;29.37;;
11443;SDS011;5778;47.856;12.154;2023-03-04T01:21:31;42.43;;;27.90;;
11443;SDS011;5778;47.856;12.154;2023-03-04T01:23:59;42.87;;;28.07;;
11443;SDS011;5778;47.856;12.154;2023-03-04T01:26:27;51.43;;;31.67;;
11443;SDS011;5778;47.856;12.154;2023-03-04T01:28:55;43.77;;;29.23;;
11443;SDS011;5778;47.856;12.154;2023-03-04T01:31:22;48.00;;;29.87;;
11443;SDS011;5778;47.856;12.154;2023-03-04T01:33:50;46.90;;;30.47;;
11443;SDS011;5778;47.856;12.154;2023-03-04T01:36:20;49.03;;;30.63;;
11443;SDS011;5778;47.856;12.154;2023-03-04T01:38:48;45.80;;;28.07;;
11443;SDS011;5778;47.856;12.154;2023-03-04T01:41:16;40.70;;;28.23;;
11443;SDS011;5778;47.856;12.154;2023-03-04T01:43:48;44.33;;;27.73;;
11443;SDS011;5778;47.856;12.154;2023-03-04T01:46:15;42.67;;;27.27;;
11443;SDS011;5778;47.856;12.154;2023-03-04T01:48:43;43.23;;;28.17;;
11443;SDS011;5778;47.856;12.154;2023-03-04T01:51:13;43.63;;;27.63;;
11443;SDS011;5778;47.856;12.154;2023-03-04T01:53:44;43.43;;;27.67;;
11443;SDS011;5778;47.856;12.154;2023-03-04T01:56:15;44.07;;;28.40;;
11443;SDS011;5778;47.856;12.154;2023-03-04T01:58:49;48.00;;;27.63;;
11443;SDS011;5778;47.856;12.154;2023-03-04T02:01:34;43.83;;;27.53;;
11443;SDS011;5778;47.856;12.154;2023-03-04T02:04:03;43.73;;;27.63;;
11443;SDS011;5778;47.856;12.154;2023-03-04T02:06:32;44.30;;;26.30;;
11443;SDS011;5778;47.856;12.154;2023-03-04T02:09:03;39.83;;;26.50;;
11443;SDS011;5778;47.856;12.154;2023-03-04T02:11:31;44.50;;;27.33;;
11443;SDS011;5778;47.856;12.154;2023-03-04T02:13:59;41.20;;;26.17;;
11443;SDS011;5778;47.856;12.154;2023-03-04T02:16:27;41.90;;;26.27;;
11443;SDS011;5778;47.856;12.154;2023-03-04T02:18:56;45.70;;;26.87;;
11443;SDS011;5778;47.856;12.154;2023-03-04T02:21:26;42.43;;;26.97;;
11443;SDS011;5778;47.856;12.154;2023-03-04T02:24:08;43.13;;;27.77;;
11443;SDS011;5778;47.856;12.154;2023-03-04T02:26:43;42.60;;;27.03;;
11443;SDS011;5778;47.856;12.154;2023-03-04T02:29:12;41.63;;;25.30;;
11443;SDS011;5778;47.856;12.154;2023-03-04T02:31:42;42.77;;;25.80;;
11443;SDS011;5778;47.856;12.154;2023-03-04T02:34:13;37.63;;;25.07;;
11443;SDS011;5778;47.856;12.154;2023-03-04T02:36:43;39.43;;;25.27;;
11443;SDS011;5778;47.856;12.154;2023-03-04T02:39:19;39.17;;;24.77;;
11443;SDS011;5778;47.856;12.154;2023-03-04T02:41:51;37.97;;;25.53;;
11443;SDS011;5778;47.856;12.154;2023-03-04T02:44:22;36.77;;;24.57;;
11443;SDS011;5778;47.856;12.154;2023-03-04T02:46:51;36.50;;;24.70;;
11443;SDS011;5778;47.856;12.154;2023-03-04T02:49:19;32.33;;;24.10;;
11443;SDS011;5778;47.856;12.154;2023-03-04T02:51:49;30.20;;;23.13;;
11443;SDS011;5778;47.856;12.154;2023-03-04T02:54:18;33.77;;;24.07;;
11443;SDS011;5778;47.856;12.154;2023-03-04T02:56:48;32.13;;;23.90;;
11443;SDS011;5778;47.856;12.154;2023-03-04T02:59:19;32.57;;;23.47;;
11443;SDS011;5778;47.856;12.154;2023-03-04T03:01:48;33.63;;;24.07;;
11443;SDS011;5778;47.856;12.154;2023-03-04T03:04:16;33.17;;;23.90;;
11443;SDS011;5778;47.856;12.154;2023-03-04T03:06:45;33.27;;;23.73;;
11443;SDS011;5778;47.856;12.154;2023-03-04T03:09:13;30.63;;;23.60;;
11443;SDS011;5778;47.856;12.154;2023-03-04T03:11:41;32.10;;;23.70;;
11443;SDS011;5778;47.856;12.154;2023-03-04T03:14:09;32.27;;;23.40;;
11443;SDS011;5778;47.856;12.154;2023-03-04T03:16:39;33.73;;;23.83;;
11443;SDS011;5778;47.856;12.154;2023-03-04T03:19:07;38.03;;;25.50;;
11443;SDS011;5778;47.856;12.154;2023-03-04T03:21:35;34.53;;;25.17;;
11443;SDS011;5778;47.856;12.154;2023-03-04T03:24:03;33.60;;;24.03;;
11443;SDS011;5778;47.856;12.154;2023-03-04T03:26:30;32.83;;;23.80;;
11443;SDS011;5778;47.856;12.154;2023-03-04T03:28:57;35.17;;;24.93;;
11443;SDS011;5778;47.856;12.154;2023-03-04T03:31:27;34.17;;;25.13;;
11443;SDS011;5778;47.856;12.154;2023-03-04T03:33:56;35.70;;;24.33;;
11443;SDS011;5778;47.856;12.154;2023-03-04T03:36:24;34.50;;;23.40;;
11443;SDS011;5778;47.856;12.154;2023-03-04T03:38:51;33.60;;;25.13;;
11443;SDS011;5778;47.856;12.154;2023-03-04T03:41:19;33.33;;;23.77;;
11443;SDS011;5778;47.856;12.154;2023-03-04T03:43:47;40.40;;;26.30;;
11443;SDS011;5778;47.856;12.154;2023-03-04T03:46:18;40.17;;;25.23;;
11443;SDS011;5778;47.856;12.154;2023-03-04T03:48:47;39.17;;;25.63;;
11443;SDS011;5778;47.856;12.154;2023-03-04T03:51:16;37.70;;;24.97;;
11443;SDS011;5778;47.856;12.154;2023-03-04T03:53:44;36.53;;;24.73;;
11443;SDS011;5778;47.856;12.154;2023-03-04T03:56:12;39.23;;;24.43;;
11443;SDS011;5778;47.856;12.154;2023-03-04T03:58:39;37.63;;;24.77;;
11443;SDS011;5778;47.856;12.154;2023-03-04T04:01:07;41.73;;;26.03;;
11443;SDS011;5778;47.856;12.154;2023-03-04T04:03:36;44.60;;;27.60;;
11443;SDS011;5778;47.856;12.154;2023-03-04T04:06:06;44.03;;;26.73;;
11443;SDS011;5778;47.856;12.154;2023-03-04T04:08:36;43.43;;;27.60;;
11443;SDS011;5778;47.856;12.154;2023-03-04T04:11:04;47.33;;;27.67;;
11443;SDS011;5778;47.856;12.154;2023-03-04T04:13:32;53.63;;;30.03;;
11443;SDS011;5778;47.856;12.154;2023-03-04T04:15:59;55.63;;;30.87;;
11443;SDS011;5778;47.856;12.154;2023-03-04T04:18:26;57.77;;;31.80;;
11443;SDS011;5778;47.856;12.154;2023-03-04T04:20:57;59.93;;;33.13;;
11443;SDS011;5778;47.856;12.154;2023-03-04T04:23:25;54.23;;;32.17;;
11443;SDS011;5778;47.856;12.154;2023-03-04T04:25:55;54.50;;;31.67;;
11443;SDS011;5778;47.856;12.154;2023-03-04T04:28:24;56.00;;;32.50;;
11443;SDS011;5778;47.856;12.154;2023-03-04T04:30:53;57.20;;;32.60;;
11443;SDS011;5778;47.856;12.154;2023-03-04T04:33:20;55.03;;;32.50;;
11443;SDS011;5778;47.856;12.154;2023-03-04T04:35:47;53.30;;;31.63;;
11443;SDS011;5778;47.856;12.154;2023-03-04T04:38:15;49.73;;;30.77;;
11443;SDS011;5778;47.856;12.154;2023-03-04T04:40:42;51.43;;;31.60;;
11443;SDS011;5778;47.856;12.154;2023-03-04T04:43:12;54.07;;;31.50;;
11443;SDS011;5778;47.856;12.154;2023-03-04T04:45:40;52.27;;;31.83;;
11443;SDS011;5778;47.856;12.154;2023-03-04T04:48:07;55.40;;;32.67;;
11443;SDS011;5778;47.856;12.154;2023-03-04T04:50:35;51.33;;;32.67;;
11443;SDS011;5778;47.856;12.154;2023-03-04T04:53:03;55.37;;;33.80;;
11443;SDS011;5778;47.856;12.154;2023-03-04T04:55:30;54.33;;;32.00;;
11443;SDS011;5778;47.856;12.154;2023-03-04T04:58:00;53.57;;;32.73;;
11443;SDS011;5778;47.856;12.154;2023-03-04T05:00:28;50.93;;;32.03;;
11443;SDS011;5778;47.856;12.154;2023-03-04T05:02:56;48.97;;;32.03;;
11443;SDS011;5778;47.856;12.154;2023-03-04T05:05:23;53.37;;;32.70;;
11443;SDS011;5778;47.856;12.154;2023-03-04T05:07:51;54.93;;;32.53;;
11443;SDS011;5778;47.856;12.154;2023-03-04T05:10:22;51.93;;;32.00;;
11443;SDS011;5778;47.856;12.154;2023-03-04T05:12:50;51.97;;;33.63;;
11443;SDS011;5778;47.856;12.154;2023-03-04T05:15:19;54.30;;;32.13;;
11443;SDS011;5778;47.856;12.154;2023-03-04T05:17:48;55.43;;;33.17;;
11443;SDS011;5778;47.856;12.154;2023-03-04T05:20:16;57.70;;;33.63;;
11443;SDS011;5778;47.856;12.154;2023-03-04T05:22:44;50.93;;;33.03;;
11443;SDS011;5778;47.856;12.154;2023-03-04T05:25:11;51.00;;;32.67;;
11443;SDS011;5778;47.856;12.154;2023-03-04T05:27:41;51.43;;;32.47;;
11443;SDS011;5778;47.856;12.154;2023-03-04T05:30:13;52.90;;;32.90;;
11443;SDS011;5778;47.856;12.154;2023-03-04T05:32:40;52.10;;;32.90;;
11443;SDS011;5778;47.856;12.154;2023-03-04T05:35:10;52.73;;;32.53;;
11443;SDS011;5778;47.856;12.154;2023-03-04T05:37:37;56.60;;;33.33;;
11443;SDS011;5778;47.856;12.154;2023-03-04T05:40:05;53.10;;;32.53;;
11443;SDS011;5778;47.856;12.154;2023-03-04T05:42:34;52.33;;;33.07;;
11443;SDS011;5778;47.856;12.154;2023-03-04T05:45:01;50.13;;;32.27;;
11443;SDS011;5778;47.856;12.154;2023-03-04T05:47:30;53.90;;;32.43;;
11443;SDS011;5778;47.856;12.154;2023-03-04T05:49:59;53.47;;;32.40;;
11443;SDS011;5778;47.856;12.154;2023-03-04T05:52:29;56.10;;;34.30;;
11443;SDS011;5778;47.856;12.154;2023-03-04T05:54:57;57.13;;;34.00;;
11443;SDS011;5778;47.856;12.154;2023-03-04T05:57:24;52.93;;;33.97;;
11443;SDS011;5778;47.856;12.154;2023-03-04T05:59:51;54.20;;;34.23;;
11443;SDS011;5778;47.856;12.154;2023-03-04T06:02:19;54.70;;;34.27;;
11443;SDS011;5778;47.856;12.154;2023-03-04T06:04:47;54.90;;;34.20;;
11443;SDS011;5778;47.856;12.154;2023-03-04T06:07:15;56.93;;;34.77;;
11443;SDS011;5778;47.856;12.154;2023-03-04T06:09:47;60.60;;;35.90;;
11443;SDS011;5778;47.856;12.154;2023-03-04T06:12:15;56.60;;;34.93;;
11443;SDS011;5778;47.856;12.154;2023-03-04T06:14:43;55.03;;;35.57;;
11443;SDS011;5778;47.856;12.154;2023-03-04T06:17:10;58.40;;;35.33;;
11443;SDS011;5778;47.856;12.154;2023-03-04T06:19:38;54.27;;;35.40;;
11443;SDS011;5778;47.856;12.154;2023-03-04T06:22:06;55.77;;;35.37;;
11443;SDS011;5778;47.856;12.154;2023-03-04T06:24:36;56.13;;;35.57;;
11443;SDS011;5778;47.856;12.154;2023-03-04T06:27:05;60.97;;;36.80;;
11443;SDS011;5778;47.856;12.154;2023-03-04T06:29:33;58.37;;;35.73;;
11443;SDS011;5778;47.856;12.154;2023-03-04T06:32:00;55.63;;;34.90;;
11443;SDS011;5778;47.856;12.154;2023-03-04T06:34:28;54.70;;;34.93;;
11443;SDS011;5778;47.856;12.154;2023-03-04T06:36:58;55.67;;;34.80;;
11443;SDS011;5778;47.856;12.154;2023-03-04T06:39:25;51.60;;;33.87;;
11443;SDS011;5778;47.856;12.154;2023-03-04T06:41:52;71.07;;;42.13;;
11443;SDS011;5778;47.856;12.154;2023-03-04T06:44:22;73.60;;;45.57;;
11443;SDS011;5778;47.856;12.154;2023-03-04T06:46:49;65.50;;;40.07;;
11443;SDS011;5778;47.856;12.154;2023-03-04T06:49:17;63.40;;;37.23;;
11443;SDS011;5778;47.856;12.154;2023-03-04T06:51:44;56.43;;;34.43;;
11443;SDS011;5778;47.856;12.154;2023-03-04T06:54:12;56.37;;;33.73;;
11443;SDS011;5778;47.856;12.154;2023-03-04T06:56:41;56.87;;;34.33;;
11443;SDS011;5778;47.856;12.154;2023-03-04T06:59:08;58.43;;;36.23;;
11443;SDS011;5778;47.856;12.154;2023-03-04T07:01:37;58.33;;;36.07;;
11443;SDS011;5778;47.856;12.154;2023-03-04T07:04:05;58.60;;;33.57;;
11443;SDS011;5778;47.856;12.154;2023-03-04T07:06:35;56.60;;;33.80;;
11443;SDS011;5778;47.856;12.154;2023-03-04T07:09:03;54.27;;;32.47;;
11443;SDS011;5778;47.856;12.154;2023-03-04T07:11:31;60.37;;;34.97;;
11443;SDS011;5778;47.856;12.154;2023-03-04T07:13:58;58.20;;;35.57;;
11443;SDS011;5778;47.856;12.154;2023-03-04T07:16:26;59.13;;;34.37;;
11443;SDS011;5778;47.856;12.154;2023-03-04T07:18:54;59.80;;;34.53;;
11443;SDS011;5778;47.856;12.154;2023-03-04T07:21:22;61.33;;;35.20;;
11443;SDS011;5778;47.856;12.154;2023-03-04T07:23:50;60.50;;;34.70;;
11443;SDS011;5778;47.856;12.154;2023-03-04T07:26:17;60.50;;;34.60;;
11443;SDS011;5778;47.856;12.154;2023-03-04T07:28:45;61.83;;;36.00;;
11443;SDS011;5778;47.856;12.154;2023-03-04T07:31:13;58.40;;;35.23;;
11443;SDS011;5778;47.856;12.154;2023-03-04T07:33:47;53.23;;;33.53;;
11443;SDS011;5778;47.856;12.154;2023-03-04T07:36:15;52.33;;;33.07;;
11443;SDS011;5778;47.856;12.154;2023-03-04T07:38:44;55.83;;;33.33;;
11443;SDS011;5778;47.856;12.154;2023-03-04T07:41:11;54.63;;;32.70;;
11443;SDS011;5778;47.856;12.154;2023-03-04T07:43:39;53.23;;;32.17;;
11443;SDS011;5778;47.856;12.154;2023-03-04T07:46:06;54.50;;;33.13;;
11443;SDS011;5778;47.856;12.154;2023-03-04T07:48:35;53.57;;;32.23;;
11443;SDS011;5778;47.856;12.154;2023-03-04T07:51:04;49.90;;;32.47;;
11443;SDS011;5778;47.856;12.154;2023-03-04T07:53:34;48.57;;;31.13;;
11443;SDS011;5778;47.856;12.154;2023-03-04T07:56:04;52.07;;;32.03;;
11443;SDS011;5778;47.856;12.154;2023-03-04T07:58:32;49.57;;;31.33;;
11443;SDS011;5778;47.856;12.154;2023-03-04T08:01:00;49.00;;;30.40;;
11443;SDS011;5778;47.856;12.154;2023-03-04T08:03:27;49.70;;;31.10;;
11443;SDS011;5778;47.856;12.154;2023-03-04T08:05:54;43.27;;;29.23;;
11443;SDS011;5778;47.856;12.154;2023-03-04T08:08:21;46.27;;;29.77;;
11443;SDS011;5778;47.856;12.154;2023-03-04T08:10:50;46.63;;;30.60;;
11443;SDS011;5778;47.856;12.154;2023-03-04T08:13:18;47.13;;;29.53;;
11443;SDS011;5778;47.856;12.154;2023-03-04T08:15:45;46.43;;;29.47;;
11443;SDS011;5778;47.856;12.154;2023-03-04T08:18:12;46.03;;;28.97;;
11443;SDS011;5778;47.856;12.154;2023-03-04T08:20:40;44.23;;;27.97;;
11443;SDS011;5778;47.856;12.154;2023-03-04T08:23:08;43.93;;;28.07;;
11443;SDS011;5778;47.856;12.154;2023-03-04T08:25:37;40.47;;;25.20;;
11443;SDS011;5778;47.856;12.154;2023-03-04T08:28:06;39.70;;;25.50;;
11443;SDS011;5778;47.856;12.154;2023-03-04T08:30:34;37.27;;;23.53;;
11443;SDS011;5778;47.856;12.154;2023-03-04T08:33:02;35.63;;;23.60;;
11443;SDS011;5778;47.856;12.154;2023-03-04T08:35:29;39.53;;;24.07;;
11443;SDS011;5778;47.856;12.154;2023-03-04T08:37:56;32.30;;;21.60;;
11443;SDS011;5778;47.856;12.154;2023-03-04T08:40:23;28.60;;;20.57;;
11443;SDS011;5778;47.856;12.154;2023-03-04T08:42:51;34.53;;;20.97;;
11443;SDS011;5778;47.856;12.154;2023-03-04T08:45:19;37.83;;;21.90;;
11443;SDS011;5778;47.856;12.154;2023-03-04T08:47:46;30.53;;;21.00;;
11443;SDS011;5778;47.856;12.154;2023-03-04T08:50:14;30.80;;;20.63;;
11443;SDS011;5778;47.856;12.154;2023-03-04T08:52:41;32.80;;;20.50;;
11443;SDS011;5778;47.856;12.154;2023-03-04T08:55:08;31.00;;;21.30;;
11443;SDS011;5778;47.856;12.154;2023-03-04T08:57:35;29.73;;;20.97;;
11443;SDS011;5778;47.856;12.154;2023-03-04T09:00:02;28.93;;;20.17;;
11443;SDS011;5778;47.856;12.154;2023-03-04T09:02:31;27.70;;;19.00;;
11443;SDS011;5778;47.856;12.154;2023-03-04T09:04:58;27.17;;;19.07;;
11443;SDS011;5778;47.856;12.154;2023-03-04T09:07:28;27.63;;;19.30;;
11443;SDS011;5778;47.856;12.154;2023-03-04T09:09:59;25.37;;;18.87;;
11443;SDS011;5778;47.856;12.154;2023-03-04T09:12:29;26.53;;;18.73;;
11443;SDS011;5778;47.856;12.154;2023-03-04T09:15:00;23.67;;;16.63;;
11443;SDS011;5778;47.856;12.154;2023-03-04T09:20:21;30.73;;;19.13;;
11443;SDS011;5778;47.856;12.154;2023-03-04T09:22:49;28.80;;;19.43;;
11443;SDS011;5778;47.856;12.154;2023-03-04T09:25:23;28.67;;;18.97;;
11443;SDS011;5778;47.856;12.154;2023-03-04T09:27:53;29.37;;;19.50;;
11443;SDS011;5778;47.856;12.154;2023-03-04T09:30:24;27.57;;;19.37;;
11443;SDS011;5778;47.856;12.154;2023-03-04T09:35:44;28.33;;;18.73;;
11443;SDS011;5778;47.856;12.154;2023-03-04T09:38:13;27.97;;;19.23;;
11443;SDS011;5778;47.856;12.154;2023-03-04T09:40:47;29.97;;;19.27;;
11443;SDS011;5778;47.856;12.154;2023-03-04T09:43:18;31.03;;;20.63;;
11443;SDS011;5778;47.856;12.154;2023-03-04T09:45:49;29.57;;;19.50;;
11443;SDS011;5778;47.856;12.154;2023-03-04T09:48:21;29.97;;;20.97;;
11443;SDS011;5778;47.856;12.154;2023-03-04T09:50:56;33.70;;;21.77;;
11443;SDS011;5778;47.856;12.154;2023-03-04T09:54:08;24.90;;;18.20;;
11443;SDS011;5778;47.856;12.154;2023-03-04T09:56:40;27.87;;;19.10;;
11443;SDS011;5778;47.856;12.154;2023-03-04T09:59:14;26.90;;;19.70;;
11443;SDS011;5778;47.856;12.154;2023-03-04T10:01:58;29.23;;;20.30;;
11443;SDS011;5778;47.856;12.154;2023-03-04T10:04:31;30.13;;;20.27;;
11443;SDS011;5778;47.856;12.154;2023-03-04T10:07:14;27.43;;;21.20;;
11443;SDS011;5778;47.856;12.154;2023-03-04T10:09:48;26.43;;;19.90;;
11443;SDS011;5778;47.856;12.154;2023-03-04T10:12:33;31.87;;;21.07;;
11443;SDS011;5778;47.856;12.154;2023-03-04T10:15:05;32.07;;;21.93;;
11443;SDS011;5778;47.856;12.154;2023-03-04T10:17:54;31.13;;;21.17;;
11443;SDS011;5778;47.856;12.154;2023-03-04T10:23:24;31.63;;;21.90;;
11443;SDS011;5778;47.856;12.154;2023-03-04T10:25:52;32.70;;;22.13;;
11443;SDS011;5778;47.856;12.154;2023-03-04T10:28:20;33.63;;;22.90;;
11443;SDS011;5778;47.856;12.154;2023-03-04T10:30:53;31.60;;;21.53;;
11443;SDS011;5778;47.856;12.154;2023-03-04T10:33:26;33.23;;;22.33;;
11443;SDS011;5778;47.856;12.154;2023-03-04T10:35:59;30.87;;;22.00;;
11443;SDS011;5778;47.856;12.154;2023-03-04T10:38:29;31.50;;;21.47;;
11443;SDS011;5778;47.856;12.154;2023-03-04T10:40:58;30.37;;;22.23;;
11443;SDS011;5778;47.856;12.154;2023-03-04T10:43:25;31.93;;;22.50;;
11443;SDS011;5778;47.856;12.154;2023-03-04T10:45:56;34.43;;;22.87;;
11443;SDS011;5778;47.856;12.154;2023-03-04T10:48:26;34.67;;;22.07;;
11443;SDS011;5778;47.856;12.154;2023-03-04T10:51:08;30.40;;;23.53;;
11443;SDS011;5778;47.856;12.154;2023-03-04T10:53:38;33.90;;;23.57;;
11443;SDS011;5778;47.856;12.154;2023-03-04T10:58:57;33.87;;;24.37;;
11443;SDS011;5778;47.856;12.154;2023-03-04T11:02:00;33.33;;;23.60;;
11443;SDS011;5778;47.856;12.154;2023-03-04T11:04:31;32.30;;;23.13;;
11443;SDS011;5778;47.856;12.154;2023-03-04T11:06:59;28.40;;;21.80;;
11443;SDS011;5778;47.856;12.154;2023-03-04T11:09:27;28.60;;;21.90;;
11443;SDS011;5778;47.856;12.154;2023-03-04T11:11:55;29.83;;;21.60;;
11443;SDS011;5778;47.856;12.154;2023-03-04T11:14:25;28.93;;;21.60;;
11443;SDS011;5778;47.856;12.154;2023-03-04T11:16:59;32.30;;;22.80;;
11443;SDS011;5778;47.856;12.154;2023-03-04T11:19:28;33.13;;;23.77;;
11443;SDS011;5778;47.856;12.154;2023-03-04T11:22:00;32.30;;;23.13;;
11443;SDS011;5778;47.856;12.154;2023-03-04T11:24:29;31.83;;;23.93;;
11443;SDS011;5778;47.856;12.154;2023-03-04T11:27:01;35.43;;;24.07;;
11443;SDS011;5778;47.856;12.154;2023-03-04T11:29:32;34.70;;;23.63;;
11443;SDS011;5778;47.856;12.154;2023-03-04T11:32:07;31.27;;;23.33;;
11443;SDS011;5778;47.856;12.154;2023-03-04T11:34:38;29.23;;;21.20;;
11443;SDS011;5778;47.856;12.154;2023-03-04T11:37:11;29.23;;;22.20;;
11443;SDS011;5778;47.856;12.154;2023-03-04T11:39:45;29.10;;;22.37;;
11443;SDS011;5778;47.856;12.154;2023-03-04T11:42:20;31.50;;;22.97;;
11443;SDS011;5778;47.856;12.154;2023-03-04T11:44:54;32.07;;;22.73;;
11443;SDS011;5778;47.856;12.154;2023-03-04T11:47:35;29.63;;;22.37;;
11443;SDS011;5778;47.856;12.154;2023-03-04T11:50:12;28.60;;;21.63;;
11443;SDS011;5778;47.856;12.154;2023-03-04T11:55:57;26.73;;;20.67;;
11443;SDS011;5778;47.856;12.154;2023-03-04T11:58:44;25.80;;;19.70;;
11443;SDS011;5778;47.856;12.154;2023-03-04T12:01:23;29.57;;;20.40;;
11443;SDS011;5778;47.856;12.154;2023-03-04T12:04:05;27.47;;;21.07;;
11443;SDS011;5778;47.856;12.154;2023-03-04T12:06:48;29.03;;;21.07;;
11443;SDS011;5778;47.856;12.154;2023-03-04T12:09:31;28.07;;;21.13;;
11443;SDS011;5778;47.856;12.154;2023-03-04T12:12:16;28.37;;;21.07;;
11443;SDS011;5778;47.856;12.154;2023-03-04T12:14:53;27.93;;;19.53;;
11443;SDS011;5778;47.856;12.154;2023-03-04T12:17:40;22.73;;;17.93;;
11443;SDS011;5778;47.856;12.154;2023-03-04T12:20:25;26.87;;;19.70;;
11443;SDS011;5778;47.856;12.154;2023-03-04T12:23:05;24.67;;;19.20;;
11443;SDS011;5778;47.856;12.154;2023-03-04T12:25:43;28.80;;;20.17;;
11443;SDS011;5778;47.856;12.154;2023-03-04T12:28:21;26.47;;;19.27;;
11443;SDS011;5778;47.856;12.154;2023-03-04T12:31:23;25.47;;;19.67;;
11443;SDS011;5778;47.856;12.154;2023-03-04T12:37:11;25.60;;;18.80;;
11443;SDS011;5778;47.856;12.154;2023-03-04T12:39:51;26.13;;;19.53;;
11443;SDS011;5778;47.856;12.154;2023-03-04T12:42:39;26.40;;;18.73;;
11443;SDS011;5778;47.856;12.154;2023-03-04T12:45:22;26.07;;;18.87;;
11443;SDS011;5778;47.856;12.154;2023-03-04T12:47:55;23.00;;;19.00;;
11443;SDS011;5778;47.856;12.154;2023-03-04T12:50:35;24.33;;;19.03;;
11443;SDS011;5778;47.856;12.154;2023-03-04T12:53:14;26.07;;;19.77;;
11443;SDS011;5778;47.856;12.154;2023-03-04T12:55:50;24.43;;;18.93;;
11443;SDS011;5778;47.856;12.154;2023-03-04T12:58:20;28.30;;;20.07;;
11443;SDS011;5778;47.856;12.154;2023-03-04T13:00:52;25.23;;;19.37;;
11443;SDS011;5778;47.856;12.154;2023-03-04T13:03:31;25.43;;;18.83;;
11443;SDS011;5778;47.856;12.154;2023-03-04T13:06:10;26.87;;;19.50;;
11443;SDS011;5778;47.856;12.154;2023-03-04T13:08:49;25.50;;;19.40;;
11443;SDS011;5778;47.856;12.154;2023-03-04T13:11:32;25.27;;;18.07;;
11443;SDS011;5778;47.856;12.154;2023-03-04T13:14:21;24.77;;;17.73;;
11443;SDS011;5778;47.856;12.154;2023-03-04T13:16:50;24.90;;;17.83;;
11443;SDS011;5778;47.856;12.154;2023-03-04T13:22:25;22.10;;;16.20;;
11443;SDS011;5778;47.856;12.154;2023-03-04T13:24:55;22.87;;;17.33;;
11443;SDS011;5778;47.856;12.154;2023-03-04T13:36:29;26.33;;;18.00;;
11443;SDS011;5778;47.856;12.154;2023-03-04T13:39:00;23.93;;;17.77;;
11443;SDS011;5778;47.856;12.154;2023-03-04T13:41:31;25.27;;;18.00;;
11443;SDS011;5778;47.856;12.154;2023-03-04T13:47:05;22.33;;;16.90;;
11443;SDS011;5778;47.856;12.154;2023-03-04T13:49:34;23.47;;;15.40;;
11443;SDS011;5778;47.856;12.154;2023-03-04T13:58:16;27.17;;;19.67;;
11443;SDS011;5778;47.856;12.154;2023-03-04T14:00:47;25.93;;;18.63;;
11443;SDS011;5778;47.856;12.154;2023-03-04T14:03:20;25.40;;;18.23;;
11443;SDS011;5778;47.856;12.154;2023-03-04T14:06:08;27.33;;;18.33;;
11443;SDS011;5778;47.856;12.154;2023-03-04T14:08:36;25.33;;;18.00;;
11443;SDS011;5778;47.856;12.154;2023-03-04T14:11:03;26.10;;;18.73;;
11443;SDS011;5778;47.856;12.154;2023-03-04T14:13:32;25.13;;;18.43;;
11443;SDS011;5778;47.856;12.154;2023-03-04T14:15:58;28.93;;;19.33;;
11443;SDS011;5778;47.856;12.154;2023-03-04T14:18:25;26.57;;;18.73;;
11443;SDS011;5778;47.856;12.154;2023-03-04T14:20:53;24.87;;;19.30;;
11443;SDS011;5778;47.856;12.154;2023-03-04T14:23:25;26.40;;;19.60;;
11443;SDS011;5778;47.856;12.154;2023-03-04T14:26:04;23.17;;;17.83;;
11443;SDS011;5778;47.856;12.154;2023-03-04T14:28:36;25.17;;;19.27;;
11443;SDS011;5778;47.856;12.154;2023-03-04T14:31:10;25.77;;;19.43;;
11443;SDS011;5778;47.856;12.154;2023-03-04T14:33:43;25.60;;;19.30;;
11443;SDS011;5778;47.856;12.154;2023-03-04T14:36:14;27.97;;;19.00;;
11443;SDS011;5778;47.856;12.154;2023-03-04T14:38:43;27.77;;;19.43;;
11443;SDS011;5778;47.856;12.154;2023-03-04T14:41:18;27.57;;;20.17;;
11443;SDS011;5778;47.856;12.154;2023-03-04T14:43:52;27.03;;;19.13;;
11443;SDS011;5778;47.856;12.154;2023-03-04T14:46:32;29.30;;;19.63;;
11443;SDS011;5778;47.856;12.154;2023-03-04T14:49:04;27.30;;;19.47;;
11443;SDS011;5778;47.856;12.154;2023-03-04T14:51:39;29.27;;;20.00;;
11443;SDS011;5778;47.856;12.154;2023-03-04T14:54:26;27.13;;;20.00;;
11443;SDS011;5778;47.856;12.154;2023-03-04T14:57:01;29.07;;;21.13;;
11443;SDS011;5778;47.856;12.154;2023-03-04T14:59:48;27.37;;;20.37;;
11443;SDS011;5778;47.856;12.154;2023-03-04T15:02:17;28.67;;;21.10;;
11443;SDS011;5778;47.856;12.154;2023-03-04T15:04:47;31.20;;;21.97;;
11443;SDS011;5778;47.856;12.154;2023-03-04T15:07:15;30.80;;;21.93;;
11443;SDS011;5778;47.856;12.154;2023-03-04T15:09:51;27.53;;;21.47;;
11443;SDS011;5778;47.856;12.154;2023-03-04T15:12:24;30.53;;;22.13;;
11443;SDS011;5778;47.856;12.154;2023-03-04T15:14:56;27.97;;;20.37;;
11443;SDS011;5778;47.856;12.154;2023-03-04T15:17:26;28.03;;;20.77;;
11443;SDS011;5778;47.856;12.154;2023-03-04T15:20:18;29.77;;;20.93;;